.
WxDataArchive / Data Records for 2013-06-26
2013-06-25 June 2013 2013-06-27

Data Records for Wednesday, 26 June 2013

Time	Temp	Chill	HIndex	Humid	Dewpt	 Wind 	HiWind	WindDir	Rain 	Barom 
-----	----	-----	------	-----	-----	------	------	-------	-----	----- 
00:00	69.3	69.3	69.3	93	67.2	0	1	248	0.00	29.874 
00:05	69.1	69.1	69.1	93	67.0	0	0	---	0.00	29.874 
00:10	69.1	69.1	69.1	93	67.0	0	0	---	0.00	29.874 
00:15	68.9	68.9	68.9	93	66.8	0	0	---	0.00	29.867 
00:20	68.9	68.9	68.9	93	66.8	0	1	248	0.00	29.867 
00:25	68.9	68.9	68.9	93	66.8	0	1	248	0.00	29.867 
00:30	68.9	68.9	68.9	93	66.8	0	0	---	0.00	29.874 
00:35	68.9	68.9	68.9	93	66.8	0	1	248	0.00	29.874 
00:40	69.1	69.1	69.1	94	67.3	0	1	248	0.00	29.874 
00:45	69.1	69.1	69.1	93	67.0	0	2	248	0.00	29.884 
00:50	69.1	69.1	69.1	94	67.3	0	1	248	0.00	29.884 
00:55	69.1	69.1	69.1	94	67.3	0	2	248	0.00	29.884 
01:00	68.9	68.9	68.9	94	67.1	1	3	248	0.00	29.887 
01:05	68.8	68.8	68.8	94	67.0	1	3	248	0.00	29.887 
01:10	68.8	68.8	68.8	94	67.0	0	2	248	0.00	29.887 
01:15	68.8	68.8	68.8	94	67.0	0	1	248	0.00	29.892 
01:20	68.8	68.8	68.8	94	67.0	0	1	248	0.00	29.892 
01:25	68.8	68.8	68.8	94	67.0	0	1	248	0.00	29.892 
01:30	68.8	68.8	68.8	94	67.0	0	2	248	0.00	29.867 
01:35	68.8	68.8	68.8	94	67.0	0	1	248	0.00	29.867 
01:40	68.6	68.6	68.6	94	66.8	0	1	248	0.00	29.867 
01:45	68.6	68.6	68.6	94	66.8	0	1	248	0.00	29.862 
01:50	68.6	68.6	68.6	94	66.8	0	1	248	0.00	29.862 
01:55	68.6	68.6	68.6	94	66.8	0	1	248	0.00	29.862 
02:00	68.4	68.4	68.4	94	66.6	0	0	---	0.00	29.849 
02:05	68.3	68.3	68.3	94	66.5	0	1	248	0.00	29.849 
02:10	68.3	68.3	68.3	94	66.5	0	0	---	0.00	29.849 
02:15	68.3	68.3	68.3	94	66.5	0	0	---	0.00	29.834 
02:20	68.3	68.3	68.3	94	66.5	0	0	---	0.00	29.834 
02:25	68.1	68.1	68.1	94	66.3	0	0	---	0.00	29.834 
02:30	68.1	68.1	68.1	95	66.6	0	0	---	0.00	29.826 
02:35	67.9	67.9	67.9	94	66.1	0	0	---	0.00	29.826 
02:40	67.8	67.8	67.8	95	66.3	0	0	---	0.00	29.826 
02:45	67.8	67.8	67.8	95	66.3	0	0	---	0.00	29.831 
02:50	67.8	67.8	67.8	95	66.3	0	0	---	0.00	29.831 
02:55	67.6	67.6	67.6	95	66.1	0	0	---	0.00	29.831 
03:00	67.6	67.6	67.6	95	66.1	0	0	---	0.00	29.843 
03:05	67.6	67.6	67.6	95	66.1	0	0	---	0.00	29.843 
03:10	67.6	67.6	67.6	95	66.1	0	0	---	0.00	29.843 
03:15	67.8	67.8	67.8	95	66.3	0	0	---	0.00	29.839 
03:20	67.8	67.8	67.8	95	66.3	0	0	---	0.00	29.839 
03:25	67.8	67.8	67.8	95	66.3	0	0	---	0.00	29.839 
03:30	67.8	67.8	67.8	95	66.3	0	0	---	0.00	29.846 
03:35	67.8	67.8	67.8	95	66.3	0	0	---	0.00	29.846 
03:40	67.8	67.8	67.8	95	66.3	0	0	---	0.00	29.846 
03:45	67.8	67.8	67.8	95	66.3	0	0	---	0.00	29.855 
03:50	67.6	67.6	67.6	95	66.1	0	0	---	0.00	29.855 
03:55	67.6	67.6	67.6	95	66.1	0	0	---	0.00	29.855 
04:00	67.6	67.6	67.6	95	66.1	0	0	---	0.00	29.852 
04:05	67.6	67.6	67.6	95	66.1	0	0	---	0.00	29.852 
04:10	67.6	67.6	67.6	95	66.1	0	0	---	0.00	29.852 
04:15	67.8	67.8	67.8	95	66.3	0	0	---	0.00	29.847 
04:20	67.8	67.8	67.8	95	66.3	0	0	---	0.00	29.847 
04:25	67.8	67.8	67.8	95	66.3	0	0	---	0.00	29.847 
04:30	67.8	67.8	67.8	95	66.3	0	0	---	0.00	29.840 
04:35	67.6	67.6	67.6	95	66.1	0	0	---	0.00	29.840 
04:40	67.6	67.6	67.6	95	66.1	0	0	---	0.00	29.840 
04:45	67.8	67.8	67.8	95	66.3	0	0	---	0.00	29.830 
04:50	67.8	67.8	67.8	95	66.3	0	0	---	0.00	29.830 
04:55	67.9	67.9	67.9	96	66.7	0	0	---	0.00	29.830 
05:00	67.9	67.9	67.9	95	66.4	0	0	---	0.00	29.828 
05:05	68.1	68.1	68.1	96	66.9	0	1	248	0.00	29.828 
05:10	68.1	68.1	68.1	96	66.9	0	1	248	0.00	29.828 
05:15	68.3	68.3	68.3	96	67.1	0	2	248	0.00	29.825 
05:20	68.3	68.3	68.3	96	67.1	0	1	248	0.00	29.825 
05:25	68.1	68.1	68.1	96	66.9	0	2	248	0.00	29.825 
05:30	68.1	68.1	68.1	96	66.9	0	1	248	0.00	29.816 
05:35	68.1	68.1	68.1	96	66.9	0	1	248	0.00	29.816 
05:40	68.1	68.1	68.1	96	66.9	0	1	248	0.00	29.816 
05:45	67.9	67.9	67.9	96	66.7	0	1	248	0.00	29.806 
05:50	67.9	67.9	67.9	96	66.7	0	1	248	0.00	29.806 
05:55	67.9	67.9	67.9	96	66.7	0	1	248	0.00	29.806 
06:00	67.8	67.8	67.8	96	66.6	0	1	248	0.00	29.803 
06:05	67.8	67.8	67.8	96	66.6	0	1	248	0.00	29.803 
06:10	67.8	67.8	67.8	96	66.6	0	1	248	0.00	29.803 
06:15	67.8	67.8	67.8	96	66.6	0	1	248	0.00	29.800 
06:20	67.6	67.6	67.6	96	66.4	0	2	248	0.00	29.800 
06:25	67.6	67.6	67.6	96	66.4	0	1	248	0.00	29.800 
06:30	67.6	67.6	67.6	96	66.4	0	2	248	0.00	29.797 
06:35	67.6	67.6	67.6	96	66.4	0	3	248	0.00	29.797 
06:40	67.6	67.6	67.6	96	66.4	0	2	248	0.00	29.797 
06:45	67.6	67.6	67.6	96	66.4	0	3	248	0.00	29.801 
06:50	67.8	67.8	67.8	96	66.6	0	1	248	0.00	29.801 
06:55	67.8	67.8	67.8	96	66.6	0	1	248	0.00	29.801 
07:00	67.9	67.9	67.9	96	66.7	0	2	248	0.00	29.820 
07:05	67.9	67.9	67.9	96	66.7	0	3	248	0.00	29.820 
07:10	68.1	68.1	68.1	96	66.9	0	3	270	0.00	29.820 
07:15	68.1	68.1	68.1	95	66.6	0	3	270	0.00	29.820 
07:20	68.3	68.3	68.3	95	66.8	1	3	315	0.00	29.820 
07:25	68.4	68.4	68.4	95	66.9	1	3	315	0.00	29.820 
07:30	68.6	68.6	68.6	95	67.1	0	2	315	0.00	29.816 
07:35	68.6	68.6	68.6	95	67.1	0	2	315	0.00	29.816 
07:40	68.6	68.6	68.6	95	67.1	0	2	315	0.00	29.816 
07:45	68.8	68.8	68.8	95	67.3	0	1	315	0.00	29.814 
07:50	68.9	68.9	68.9	95	67.4	0	1	315	0.00	29.814 
07:55	69.3	69.3	69.3	95	67.8	0	0	---	0.00	29.814 
08:00	69.4	69.4	69.4	94	67.6	0	2	315	0.00	29.817 
08:05	69.6	69.6	69.6	94	67.8	0	1	315	0.00	29.817 
08:10	69.9	69.9	69.9	94	68.1	0	0	---	0.00	29.817 
08:15	70.3	70.3	70.3	94	68.5	0	1	315	0.00	29.823 
08:20	70.6	70.6	70.6	93	68.5	0	1	315	0.00	29.823 
08:25	70.6	70.6	70.6	92	68.2	0	1	315	0.00	29.823 
08:30	70.8	70.8	70.8	92	68.4	0	3	315	0.00	29.834 
08:35	70.9	70.9	70.9	92	68.5	0	1	315	0.00	29.834 
08:40	70.9	70.9	70.9	91	68.1	0	2	315	0.00	29.834 
08:45	70.8	70.8	70.8	90	67.7	1	3	315	0.00	29.847 
08:50	70.6	70.6	70.6	90	67.5	1	5	338	0.00	29.847 
08:55	70.4	70.4	70.4	89	67.0	0	5	270	0.00	29.847 
09:00	70.6	70.6	70.6	89	67.2	0	3	292	0.00	29.850 
09:05	70.6	70.6	70.6	89	67.2	0	5	292	0.00	29.850 
09:10	70.8	70.8	70.8	89	67.4	0	2	292	0.00	29.850 
09:15	70.9	70.9	70.9	88	67.2	1	3	292	0.00	29.848 
09:20	71.1	71.1	71.1	88	67.4	0	2	292	0.00	29.848 
09:25	71.1	71.1	71.1	87	67.0	1	3	292	0.00	29.848 
09:30	71.1	71.1	71.1	87	67.0	0	2	292	0.00	29.835 
09:35	71.3	71.3	71.3	86	66.9	0	2	292	0.00	29.835 
09:40	71.5	71.5	71.5	87	67.4	0	1	225	0.00	29.835 
09:45	71.6	71.6	71.6	86	67.2	1	2	225	0.00	29.834 
09:50	71.6	71.6	71.6	86	67.2	1	3	315	0.01	29.834 
09:55	71.6	71.6	71.6	86	67.2	0	1	315	0.00	29.834 
10:00	71.6	71.6	71.6	87	67.5	1	3	315	0.00	29.848 
10:05	71.5	71.5	71.5	87	67.4	1	3	315	0.00	29.848 
10:10	71.5	71.5	71.5	88	67.7	0	1	292	0.00	29.848 
10:15	71.3	71.3	71.3	88	67.6	0	1	292	0.00	29.850 
10:20	71.1	71.1	71.1	88	67.4	1	3	292	0.00	29.850 
10:25	70.9	70.9	70.9	88	67.2	1	2	292	0.00	29.850 
10:30	70.9	70.9	70.9	88	67.2	2	4	292	0.00	29.862 
10:35	70.6	70.6	70.6	88	66.9	3	5	292	0.00	29.862 
10:40	70.3	70.3	70.3	88	66.6	3	6	270	0.00	29.862 
10:45	69.9	69.9	69.9	88	66.2	3	6	270	0.01	29.874 
10:50	69.6	69.6	69.6	89	66.2	2	5	292	0.01	29.874 
10:55	69.1	69.1	69.1	90	66.0	2	5	315	0.01	29.874 
11:00	68.8	68.8	68.8	91	66.1	2	5	270	0.01	29.907 
11:05	68.4	68.4	68.4	91	65.7	2	6	270	0.02	29.907 
11:10	67.9	67.9	67.9	92	65.5	2	5	270	0.02	29.907 
11:15	67.8	67.8	67.8	92	65.4	1	4	270	0.01	29.896 
11:20	67.4	67.4	67.4	92	65.0	2	3	292	0.01	29.896 
11:25	67.4	67.4	67.4	92	65.0	0	2	292	0.00	29.896 
11:30	67.3	67.3	67.3	93	65.2	0	2	292	0.01	29.876 
11:35	67.1	67.1	67.1	93	65.0	0	1	292	0.01	29.876 
11:40	67.1	67.1	67.1	93	65.0	0	0	---	0.00	29.876 
11:45	67.1	67.1	67.1	93	65.0	0	0	---	0.00	29.844 
11:50	67.3	67.3	67.3	94	65.5	0	1	292	0.00	29.844 
11:55	67.3	67.3	67.3	94	65.5	0	0	---	0.00	29.844 
12:00	67.6	67.6	67.6	94	65.8	0	1	292	0.00	29.814 
12:05	67.6	67.6	67.6	94	65.8	0	2	292	0.00	29.814 
12:10	67.9	67.9	67.9	94	66.1	0	2	292	0.00	29.814 
12:15	68.1	68.1	68.1	94	66.3	0	2	292	0.00	29.829 
12:20	68.3	68.3	68.3	94	66.5	0	1	292	0.00	29.829 
12:25	68.4	68.4	68.4	95	66.9	0	1	292	0.00	29.829 
12:30	68.8	68.8	68.8	95	67.3	0	1	292	0.00	29.829 
12:35	68.9	68.9	68.9	94	67.1	0	1	292	0.00	29.829 
12:40	69.3	69.3	69.3	95	67.8	0	2	292	0.00	29.829 
12:45	69.4	69.4	69.4	95	67.9	0	2	292	0.00	29.822 
12:50	69.8	69.8	69.8	94	68.0	0	1	292	0.00	29.822 
12:55	70.1	70.1	70.1	95	68.6	0	2	292	0.00	29.822 
13:00	70.4	70.4	70.4	94	68.6	0	2	292	0.00	29.815 
13:05	70.8	70.8	70.8	94	69.0	1	3	90	0.00	29.815 
13:10	71.1	71.1	71.1	93	69.0	0	1	90	0.00	29.815 
13:15	71.6	71.6	71.6	92	69.1	0	2	90	0.00	29.812 
13:20	72.3	72.3	72.3	92	69.8	0	1	90	0.00	29.812 
13:25	73.2	73.2	73.2	92	70.7	0	1	90	0.00	29.812 
13:30	73.9	73.9	73.9	90	70.8	0	3	90	0.00	29.808 
13:35	74.4	74.4	74.4	89	70.9	0	2	315	0.00	29.808 
13:40	74.9	74.9	74.9	88	71.1	0	3	315	0.00	29.808 
13:45	75.4	75.4	75.4	86	70.9	0	3	68	0.00	29.804 
13:50	76.0	76.0	76.6	85	71.2	0	4	0	0.00	29.804 
13:55	76.7	76.7	77.9	84	71.5	0	1	0	0.00	29.804 
14:00	77.0	77.0	78.4	84	71.8	0	2	0	0.00	29.794 
14:05	77.7	77.7	79.8	83	72.1	0	1	0	0.00	29.794 
14:10	78.5	78.5	81.3	81	72.2	1	3	0	0.00	29.794 
14:15	79.2	79.2	82.5	79	72.1	0	3	0	0.00	29.780 
14:20	79.8	79.8	83.8	80	73.1	0	1	0	0.00	29.780 
14:25	80.7	80.7	85.2	77	72.8	1	3	0	0.00	29.780 
14:30	81.2	81.2	86.1	76	72.9	1	3	22	0.00	29.770 
14:35	81.8	81.8	86.5	72	71.9	2	5	68	0.00	29.770 
14:40	82.2	82.2	87.8	74	73.1	1	3	68	0.00	29.770 
14:45	82.2	82.2	87.0	71	71.8	1	4	68	0.00	29.770 
14:50	81.8	81.8	86.7	73	72.3	1	5	90	0.00	29.770 
14:55	81.8	81.8	86.7	73	72.3	0	2	0	0.00	29.770 
15:00	82.6	82.6	88.1	72	72.6	0	4	248	0.00	29.771 
15:05	82.8	82.8	87.7	69	71.6	0	2	225	0.00	29.771 
15:10	82.8	82.8	88.0	70	72.0	1	3	338	0.00	29.771 
15:15	83.0	83.0	88.4	70	72.2	0	3	248	0.00	29.768 
15:20	83.0	83.0	88.4	70	72.2	0	3	248	0.00	29.768 
15:25	83.0	83.0	88.4	70	72.2	1	4	90	0.00	29.768 
15:30	83.4	83.4	89.5	71	73.0	0	2	90	0.00	29.750 
15:35	83.8	83.8	89.7	69	72.5	1	2	90	0.00	29.750 
15:40	83.6	83.6	89.3	69	72.3	1	3	90	0.00	29.750 
15:45	83.6	83.6	89.3	69	72.3	0	4	90	0.00	29.738 
15:50	83.8	83.8	90.0	70	72.9	1	3	90	0.00	29.738 
15:55	84.0	84.0	90.2	69	72.7	1	3	45	0.00	29.738 
16:00	84.1	84.1	90.0	68	72.4	1	4	90	0.00	29.738 
16:05	84.1	84.1	90.0	68	72.4	1	4	112	0.01	29.738 
16:10	84.1	84.1	89.7	67	71.9	1	4	292	0.00	29.738 
16:15	84.0	84.0	89.5	67	71.8	1	3	292	0.00	29.739 
16:20	84.0	84.0	89.8	68	72.3	1	3	292	0.00	29.739 
16:25	84.0	84.0	89.5	67	71.8	1	6	112	0.00	29.739 
16:30	84.3	84.3	88.9	63	70.3	0	2	68	0.00	29.732 
16:35	85.3	85.3	90.8	63	71.2	0	2	68	0.00	29.732 
16:40	85.7	85.7	89.9	58	69.2	1	5	270	0.00	29.732 
16:45	85.9	85.9	90.2	58	69.4	1	3	292	0.00	29.725 
16:50	85.9	85.9	90.2	58	69.4	1	4	112	0.00	29.725 
16:55	85.9	85.9	90.9	60	70.4	1	3	112	0.00	29.725 
17:00	85.7	85.7	89.9	58	69.2	1	3	270	0.00	29.721 
17:05	85.5	85.5	90.2	60	70.0	1	3	270	0.00	29.721 
17:10	85.3	85.3	90.5	62	70.8	1	3	270	0.00	29.721 
17:15	85.1	85.1	89.8	61	70.1	1	3	270	0.00	29.722 
17:20	85.1	85.1	90.1	62	70.6	1	5	90	0.00	29.722 
17:25	84.9	84.9	90.0	63	70.9	0	4	158	0.00	29.722 
17:30	84.9	84.9	89.7	62	70.4	1	5	90	0.00	29.715 
17:35	85.1	85.1	90.4	63	71.1	1	2	68	0.00	29.715 
17:40	85.3	85.3	90.8	63	71.2	0	1	45	0.00	29.715 
17:45	85.3	85.3	90.5	62	70.8	0	2	45	0.00	29.708 
17:50	84.7	84.7	89.0	61	69.7	1	3	292	0.00	29.708 
17:55	83.0	83.0	85.5	58	66.7	2	5	248	0.00	29.708 
18:00	81.2	81.2	83.2	59	65.5	1	3	315	0.00	29.711 
18:05	80.3	80.3	82.3	61	65.6	1	4	292	0.00	29.711 
18:10	79.6	79.6	81.5	62	65.4	1	3	292	0.00	29.711 
18:15	79.0	79.0	80.9	63	65.3	0	2	248	0.00	29.729 
18:20	78.3	78.3	80.2	64	65.1	1	4	225	0.00	29.729 
18:25	77.7	77.7	79.5	65	65.0	1	3	225	0.00	29.729 
18:30	77.2	77.2	79.0	69	66.2	1	4	248	0.00	29.731 
18:35	76.7	76.7	78.3	73	67.4	0	1	248	0.00	29.731 
18:40	76.1	76.1	77.5	75	67.6	0	1	248	0.00	29.731 
18:45	75.6	75.6	76.7	77	67.9	0	3	248	0.00	29.733 
18:50	75.4	75.4	76.2	79	68.4	0	1	248	0.00	29.733 
18:55	75.3	75.3	75.9	81	69.1	0	1	248	0.01	29.733 
19:00	74.9	74.9	74.9	81	68.7	1	2	248	0.00	29.740 
19:05	74.6	74.6	74.6	81	68.4	1	3	248	0.00	29.740 
19:10	74.6	74.6	74.6	82	68.7	0	2	248	0.00	29.740 
19:15	74.6	74.6	74.6	83	69.1	0	0	---	0.00	29.734 
19:20	74.6	74.6	74.6	83	69.1	0	0	---	0.00	29.734 
19:25	74.6	74.6	74.6	83	69.1	0	1	248	0.00	29.734 
19:30	74.6	74.6	74.6	83	69.1	0	0	---	0.00	29.734 
19:35	74.6	74.6	74.6	83	69.1	0	0	---	0.00	29.734 
19:40	74.6	74.6	74.6	83	69.1	0	1	248	0.00	29.734 
19:45	74.6	74.6	74.6	83	69.1	0	2	248	0.00	29.728 
19:50	74.6	74.6	74.6	83	69.1	0	1	248	0.00	29.728 
19:55	74.7	74.7	74.7	83	69.2	0	0	---	0.00	29.728 
20:00	74.7	74.7	74.7	83	69.2	0	0	---	0.00	29.731 
20:05	74.7	74.7	74.7	83	69.2	0	0	---	0.00	29.731 
20:10	74.7	74.7	74.7	83	69.2	0	1	248	0.00	29.731 
20:15	74.7	74.7	74.7	83	69.2	0	1	248	0.00	29.729 
20:20	74.7	74.7	74.7	84	69.5	0	1	248	0.00	29.729 
20:25	74.7	74.7	74.7	84	69.5	0	1	248	0.00	29.729 
20:30	74.6	74.6	74.6	85	69.8	0	1	248	0.00	29.728 
20:35	74.4	74.4	74.4	85	69.6	0	0	---	0.00	29.728 
20:40	74.2	74.2	74.2	85	69.4	0	1	248	0.00	29.728 
20:45	74.0	74.0	74.0	86	69.5	0	0	---	0.00	29.732 
20:50	74.0	74.0	74.0	86	69.5	0	0	---	0.00	29.732 
20:55	73.9	73.9	73.9	86	69.4	0	0	---	0.00	29.732 
21:00	73.9	73.9	73.9	86	69.4	0	0	---	0.00	29.730 
21:05	73.9	73.9	73.9	86	69.4	0	0	---	0.00	29.730 
21:10	73.9	73.9	73.9	86	69.4	0	0	---	0.00	29.730 
21:15	73.9	73.9	73.9	86	69.4	0	0	---	0.00	29.726 
21:20	73.9	73.9	73.9	86	69.4	0	1	248	0.00	29.726 
21:25	73.7	73.7	73.7	86	69.2	0	0	---	0.00	29.726 
21:30	73.7	73.7	73.7	86	69.2	0	0	---	0.00	29.718 
21:35	73.7	73.7	73.7	86	69.2	0	0	---	0.00	29.718 
21:40	73.7	73.7	73.7	86	69.2	0	0	---	0.00	29.718 
21:45	73.7	73.7	73.7	87	69.6	0	1	248	0.00	29.705 
21:50	73.7	73.7	73.7	87	69.6	0	0	---	0.00	29.705 
21:55	73.5	73.5	73.5	87	69.4	0	1	248	0.00	29.705 
22:00	73.5	73.5	73.5	88	69.7	0	1	248	0.00	29.711 
22:05	73.3	73.3	73.3	88	69.5	0	2	248	0.00	29.711 
22:10	73.2	73.2	73.2	88	69.4	0	0	---	0.00	29.711 
22:15	73.0	73.0	73.0	88	69.2	0	1	248	0.00	29.718 
22:20	72.8	72.8	72.8	88	69.0	0	1	248	0.00	29.718 
22:25	72.7	72.7	72.7	89	69.3	0	0	---	0.00	29.718 
22:30	72.7	72.7	72.7	89	69.3	0	0	---	0.00	29.723 
22:35	72.5	72.5	72.5	89	69.1	0	0	---	0.00	29.723 
22:40	72.5	72.5	72.5	89	69.1	0	0	---	0.00	29.723 
22:45	72.3	72.3	72.3	89	68.9	0	1	248	0.00	29.730 
22:50	72.3	72.3	72.3	89	68.9	0	1	248	0.00	29.730 
22:55	72.3	72.3	72.3	90	69.2	0	2	248	0.00	29.730 
23:00	72.1	72.1	72.1	90	69.0	0	1	248	0.00	29.733 
23:05	72.1	72.1	72.1	89	68.7	0	0	---	0.00	29.733 
23:10	72.1	72.1	72.1	89	68.7	0	0	---	0.00	29.733 
23:15	72.1	72.1	72.1	89	68.7	0	1	248	0.00	29.742 
23:20	72.1	72.1	72.1	89	68.7	0	0	---	0.00	29.742 
23:25	72.1	72.1	72.1	89	68.7	0	0	---	0.00	29.742 
23:30	72.1	72.1	72.1	90	69.0	0	2	248	0.00	29.733 
23:35	72.0	72.0	72.0	90	68.9	0	1	248	0.01	29.733 
23:40	72.0	72.0	72.0	90	68.9	0	1	248	0.00	29.733 
23:45	71.8	71.8	71.8	90	68.7	0	0	---	0.00	29.745 
23:50	71.8	71.8	71.8	91	69.0	0	1	248	0.00	29.745 
23:55	71.6	71.6	71.6	90	68.5	0	1	248	0.00	29.745 

CoCoRaHS
IN-AL-39
A2 Web Hosting
Creative Commons License
GoDaddy
search engine by freefind advanced

loaded 2018-11-14 00:38:17 • last modified 2010-11-18 10:43:29
Privacy PolicyDisclaimer
• wx.awcolley.com is powered by PmWiki v.2002016 •
• all content (unless otherwise noted) © 2018 A W Colley